Time;durP1;ratioP1;P1;durP2;ratioP2;P2;SDS_P1;SDS_P2;PMS_P1;PMS_P2;Temp;Humidity;BMP_temperature;BMP_pressure;BME280_temperature;BME280_humidity;BME280_pressure;Samples;Min_cycle;Max_cycle;Signal;HPM_P1;HPM_P2
2024/02/11 00:01:49;;;;;;;11.30;10.17;;;12.10;99.90;;;;;;5074299;28;20445;-56
2024/02/11 00:04:15;;;;;;;11.73;10.53;;;12.10;99.90;;;;;;5074174;28;20451;-56
2024/02/11 00:06:42;;;;;;;10.53;9.63;;;12.10;99.90;;;;;;5073694;28;20471;-56
2024/02/11 00:09:09;;;;;;;12.80;10.20;;;12.10;99.90;;;;;;5073061;28;20440;-56
2024/02/11 00:11:37;;;;;;;10.90;9.90;;;12.10;99.90;;;;;;5073067;28;20440;-56
2024/02/11 00:14:05;;;;;;;11.40;10.30;;;12.20;99.90;;;;;;5073443;28;20448;-56
2024/02/11 00:16:31;;;;;;;13.77;9.97;;;12.20;99.90;;;;;;5073500;28;20480;-56
2024/02/11 00:18:58;;;;;;;10.50;9.40;;;12.20;99.90;;;;;;5073583;28;20574;-56
2024/02/11 00:21:25;;;;;;;12.37;11.17;;;12.10;99.90;;;;;;5068336;28;21003;-56
2024/02/11 00:23:52;;;;;;;14.70;11.50;;;12.10;99.90;;;;;;5053686;28;20827;-56
2024/02/11 00:26:18;;;;;;;11.43;10.27;;;12.20;99.90;;;;;;5053563;28;20457;-57
2024/02/11 00:28:47;;;;;;;9.90;8.90;;;12.20;99.90;;;;;;5053699;28;20441;-56
2024/02/11 00:31:13;;;;;;;10.50;9.40;;;12.10;99.90;;;;;;5053520;28;20507;-56
2024/02/11 00:33:40;;;;;;;10.73;9.67;;;12.10;99.90;;;;;;5053513;28;20441;-56
2024/02/11 00:36:07;;;;;;;10.50;9.40;;;12.20;99.90;;;;;;5053635;28;20818;-57
2024/02/11 00:38:34;;;;;;;12.60;10.57;;;12.20;99.90;;;;;;5053005;28;20999;-56
2024/02/11 00:41:03;;;;;;;11.40;10.20;;;12.20;99.90;;;;;;5053155;28;20947;-56
2024/02/11 00:43:30;;;;;;;12.70;10.40;;;12.10;99.90;;;;;;5053125;28;20449;-57
2024/02/11 00:45:59;;;;;;;16.93;10.63;;;12.20;99.90;;;;;;5053392;28;20810;-56
2024/02/11 00:48:25;;;;;;;12.40;10.53;;;12.20;99.90;;;;;;5053142;28;20462;-56
2024/02/11 00:50:52;;;;;;;13.37;11.33;;;12.20;99.90;;;;;;5052906;28;20446;-56
2024/02/11 00:53:19;;;;;;;11.80;10.50;;;12.20;99.90;;;;;;5052883;28;20835;-56
2024/02/11 00:55:46;;;;;;;11.60;9.73;;;12.20;99.90;;;;;;5052795;28;20468;-56
2024/02/11 00:58:13;;;;;;;11.97;9.30;;;12.20;99.90;;;;;;5052409;28;20482;-56
2024/02/11 01:00:39;;;;;;;12.13;9.87;;;12.20;99.90;;;;;;5053269;28;20445;-56
2024/02/11 01:03:11;;;;;;;11.53;10.20;;;12.20;99.90;;;;;;5053177;28;20515;-56
2024/02/11 01:05:38;;;;;;;13.70;10.60;;;12.20;99.90;;;;;;5053261;28;20426;-57
2024/02/11 01:08:05;;;;;;;11.90;10.40;;;12.20;99.90;;;;;;5053149;28;20465;-56
2024/02/11 01:10:32;;;;;;;11.73;10.20;;;12.20;99.90;;;;;;5053207;28;20451;-56
2024/02/11 01:12:59;;;;;;;11.47;10.27;;;12.20;99.90;;;;;;5053889;28;20450;-56
2024/02/11 01:15:26;;;;;;;15.40;10.40;;;12.20;99.90;;;;;;5052866;28;20871;-56
2024/02/11 01:17:53;;;;;;;10.17;9.10;;;12.20;99.90;;;;;;5052902;28;20485;-56
2024/02/11 01:20:22;;;;;;;13.03;10.47;;;12.20;99.90;;;;;;5052688;28;20817;-56
2024/02/11 01:22:49;;;;;;;9.53;8.63;;;12.20;99.90;;;;;;5052996;28;20437;-56
2024/02/11 01:25:19;;;;;;;12.10;10.90;;;12.10;99.90;;;;;;5052881;28;20441;-56
2024/02/11 01:27:46;;;;;;;10.40;9.40;;;12.10;99.90;;;;;;5053024;28;20465;-56
2024/02/11 01:30:14;;;;;;;12.70;10.50;;;12.10;99.90;;;;;;5053016;28;20464;-57
2024/02/11 01:32:41;;;;;;;11.53;9.67;;;12.20;99.90;;;;;;5053031;28;20441;-56
2024/02/11 01:35:12;;;;;;;10.63;9.47;;;12.10;99.90;;;;;;5052868;28;20452;-56
2024/02/11 01:37:41;;;;;;;11.30;9.80;;;12.10;99.90;;;;;;5052857;28;20486;-56
2024/02/11 01:40:13;;;;;;;11.50;9.47;;;12.10;99.90;;;;;;5052843;28;20450;-56
2024/02/11 01:42:40;;;;;;;11.20;9.47;;;12.10;99.90;;;;;;5052534;28;20951;-56
2024/02/11 01:45:08;;;;;;;10.80;9.70;;;12.10;99.90;;;;;;5052466;28;20935;-56
2024/02/11 01:47:36;;;;;;;18.30;10.07;;;12.10;99.90;;;;;;5052548;28;21002;-56
2024/02/11 01:50:08;;;;;;;13.17;10.80;;;12.10;99.90;;;;;;5052999;28;20449;-56
2024/02/11 01:52:36;;;;;;;16.80;10.83;;;12.10;99.90;;;;;;5052495;28;20935;-56
2024/02/11 01:55:05;;;;;;;14.53;11.23;;;12.10;99.90;;;;;;5052275;28;20465;-56
2024/02/11 01:57:32;;;;;;;12.57;10.90;;;12.10;99.90;;;;;;5052545;28;20844;-56
2024/02/11 02:00:01;;;;;;;13.93;10.73;;;12.10;99.90;;;;;;5052939;28;20455;-58
2024/02/11 02:02:29;;;;;;;16.77;13.17;;;12.10;99.90;;;;;;5055444;28;20487;-57
2024/02/11 02:04:58;;;;;;;17.63;13.10;;;12.10;99.90;;;;;;5056401;28;20433;-57
2024/02/11 02:07:25;;;;;;;16.67;12.70;;;12.10;99.90;;;;;;5055965;28;20467;-57
2024/02/11 02:09:54;;;;;;;25.47;16.10;;;12.10;99.90;;;;;;5056481;28;20441;-57
2024/02/11 02:12:22;;;;;;;21.87;15.43;;;12.10;99.90;;;;;;5057276;28;20442;-57
2024/02/11 02:14:50;;;;;;;15.17;11.57;;;12.10;99.90;;;;;;5056009;28;20492;-57
2024/02/11 02:17:16;;;;;;;14.70;12.30;;;12.10;99.90;;;;;;5055888;28;20484;-57
2024/02/11 02:19:43;;;;;;;17.93;13.77;;;12.10;99.90;;;;;;5055727;28;20965;-57
2024/02/11 02:22:12;;;;;;;14.20;12.00;;;12.10;99.90;;;;;;5056143;28;20449;-57
2024/02/11 02:24:38;;;;;;;15.37;12.77;;;12.10;99.90;;;;;;5056122;28;20448;-57
2024/02/11 02:27:06;;;;;;;15.30;11.50;;;12.10;99.90;;;;;;5055760;28;20472;-57
2024/02/11 02:29:33;;;;;;;16.63;12.27;;;12.10;99.90;;;;;;5056134;28;20449;-57
2024/02/11 02:32:00;;;;;;;14.53;11.80;;;12.10;99.90;;;;;;5055908;28;20441;-57
2024/02/11 02:34:27;;;;;;;19.13;13.63;;;12.10;99.90;;;;;;5055891;28;20450;-57
2024/02/11 02:36:54;;;;;;;18.43;13.97;;;12.10;99.90;;;;;;5055779;28;20476;-57
2024/02/11 02:39:22;;;;;;;19.87;13.83;;;12.10;99.90;;;;;;5055378;28;20445;-56
2024/02/11 02:41:48;;;;;;;17.63;13.23;;;12.10;99.90;;;;;;5055601;28;20441;-57
2024/02/11 02:44:15;;;;;;;19.30;12.73;;;12.10;99.90;;;;;;5055130;28;20811;-57
2024/02/11 02:46:42;;;;;;;16.37;13.03;;;12.00;99.90;;;;;;5055371;28;20219;-57
2024/02/11 02:49:09;;;;;;;18.40;13.60;;;12.00;99.90;;;;;;5055406;28;20572;-57
2024/02/11 02:51:34;;;;;;;17.40;13.30;;;12.00;99.90;;;;;;5055034;28;20951;-57
2024/02/11 02:54:03;;;;;;;16.50;12.60;;;12.00;99.90;;;;;;5055095;28;20460;-56
2024/02/11 02:56:34;;;;;;;17.20;13.93;;;12.00;99.90;;;;;;5055009;28;20574;-56
2024/02/11 02:59:05;;;;;;;17.70;13.20;;;12.00;99.90;;;;;;5055191;28;20993;-56
2024/02/11 03:01:32;;;;;;;16.33;14.63;;;12.00;99.90;;;;;;5055288;28;20437;-57
2024/02/11 03:04:01;;;;;;;21.83;16.63;;;12.00;99.90;;;;;;5055130;28;20448;-57
2024/02/11 03:06:27;;;;;;;19.37;15.90;;;12.00;99.90;;;;;;5055433;28;20456;-57
2024/02/11 03:08:54;;;;;;;17.93;12.63;;;11.90;99.90;;;;;;5055697;28;20936;-56
2024/02/11 03:11:21;;;;;;;16.17;14.50;;;11.90;99.90;;;;;;5055639;28;20450;-56
2024/02/11 03:13:49;;;;;;;23.07;13.47;;;11.90;99.90;;;;;;5056501;28;20855;-56
2024/02/11 03:16:16;;;;;;;14.37;12.60;;;11.90;99.90;;;;;;5055018;28;20448;-57
2024/02/11 03:18:43;;;;;;;16.20;11.67;;;11.90;99.90;;;;;;5054861;28;20481;-56
2024/02/11 03:21:10;;;;;;;14.73;11.40;;;11.90;99.90;;;;;;5055115;28;20452;-57
2024/02/11 03:23:37;;;;;;;16.43;13.10;;;11.90;99.90;;;;;;5054851;28;20452;-56
2024/02/11 03:26:04;;;;;;;15.00;12.83;;;11.90;99.90;;;;;;5054593;28;20940;-56
2024/02/11 03:28:34;;;;;;;19.07;13.97;;;11.80;99.90;;;;;;5054736;28;20552;-56
2024/02/11 03:31:03;;;;;;;15.30;11.97;;;11.80;99.90;;;;;;5054601;28;20448;-56
2024/02/11 03:33:30;;;;;;;12.40;10.70;;;11.80;99.90;;;;;;5054579;28;20445;-56
2024/02/11 03:35:57;;;;;;;13.00;11.60;;;11.90;99.90;;;;;;5054697;28;20529;-56
2024/02/11 03:38:24;;;;;;;15.30;12.70;;;11.80;99.90;;;;;;5054175;28;20496;-56
2024/02/11 03:40:53;;;;;;;14.67;12.13;;;11.90;99.90;;;;;;5054186;28;20978;-56
2024/02/11 03:43:19;;;;;;;12.60;11.30;;;11.90;99.90;;;;;;5054522;28;20464;-56
2024/02/11 03:45:47;;;;;;;12.40;10.40;;;11.80;99.90;;;;;;5054364;28;20457;-56
2024/02/11 03:48:15;;;;;;;13.23;11.53;;;11.80;99.90;;;;;;5054006;28;20835;-56
2024/02/11 03:50:42;;;;;;;14.50;11.97;;;11.80;99.90;;;;;;5054701;28;20452;-56
2024/02/11 03:53:09;;;;;;;13.37;11.30;;;11.80;99.90;;;;;;5054127;28;20465;-56
2024/02/11 03:55:37;;;;;;;11.93;10.63;;;11.80;99.90;;;;;;5054322;28;20800;-56
2024/02/11 03:58:04;;;;;;;16.37;11.70;;;11.80;99.90;;;;;;5054034;28;20486;-56
2024/02/11 04:00:31;;;;;;;12.43;10.87;;;11.80;99.90;;;;;;5054081;28;20536;-56
2024/02/11 04:02:58;;;;;;;15.53;11.53;;;11.80;99.90;;;;;;5054130;28;20534;-56
2024/02/11 04:05:28;;;;;;;17.03;11.70;;;11.90;99.90;;;;;;5054134;28;20472;-56
2024/02/11 04:07:55;;;;;;;14.60;10.83;;;11.90;99.90;;;;;;5053637;28;20527;-56
2024/02/11 04:10:28;;;;;;;17.80;10.57;;;11.80;99.90;;;;;;5053870;28;20442;-56
2024/02/11 04:12:58;;;;;;;13.90;10.60;;;11.90;99.90;;;;;;5053887;28;20426;-56
2024/02/11 04:15:27;;;;;;;11.50;10.40;;;11.90;99.90;;;;;;5053807;28;20501;-56
2024/02/11 04:17:56;;;;;;;11.50;10.40;;;11.90;99.90;;;;;;5053087;28;20489;-56
2024/02/11 04:20:26;;;;;;;11.57;9.70;;;11.90;99.90;;;;;;5053818;28;20495;-56
2024/02/11 04:22:57;;;;;;;14.73;11.30;;;11.90;99.90;;;;;;5053712;28;20430;-56
2024/02/11 04:25:25;;;;;;;11.27;9.50;;;11.80;99.90;;;;;;5053307;28;20430;-56
2024/02/11 04:27:52;;;;;;;10.60;9.50;;;11.90;99.90;;;;;;5053514;28;20466;-55
2024/02/11 04:30:19;;;;;;;10.70;9.57;;;11.80;99.90;;;;;;5053252;28;20982;-56
2024/02/11 04:32:47;;;;;;;10.80;9.60;;;11.80;99.90;;;;;;5053573;28;20449;-57
2024/02/11 04:35:15;;;;;;;11.63;10.40;;;11.80;99.90;;;;;;5053634;28;20449;-57
2024/02/11 04:37:46;;;;;;;16.10;10.07;;;11.80;99.90;;;;;;5053510;28;20461;-56
2024/02/11 04:40:16;;;;;;;11.20;9.20;;;11.80;99.90;;;;;;5053481;28;20429;-56
2024/02/11 04:42:45;;;;;;;11.50;9.90;;;11.80;99.90;;;;;;5053084;28;20821;-57
2024/02/11 04:45:15;;;;;;;9.30;8.40;;;11.80;99.90;;;;;;5053344;28;20812;-57
2024/02/11 04:47:45;;;;;;;11.10;8.43;;;11.90;99.90;;;;;;5053959;28;20869;-57
2024/02/11 04:50:15;;;;;;;9.43;7.87;;;11.80;99.90;;;;;;5053155;28;20451;-57
2024/02/11 04:52:48;;;;;;;7.53;6.83;;;11.80;99.90;;;;;;5054174;28;20521;-57
2024/02/11 04:55:18;;;;;;;7.77;6.97;;;11.80;99.90;;;;;;5053544;28;20464;-57
2024/02/11 04:57:45;;;;;;;8.20;6.67;;;11.80;99.90;;;;;;5053162;28;20497;-57
2024/02/11 05:00:24;;;;;;;8.00;7.20;;;11.80;99.90;;;;;;5053036;28;20939;-57
2024/02/11 05:02:51;;;;;;;7.60;6.80;;;11.90;99.90;;;;;;5053263;28;20804;-56
2024/02/11 05:05:19;;;;;;;8.43;7.33;;;11.90;99.90;;;;;;5053394;28;20452;-57
2024/02/11 05:07:47;;;;;;;11.87;7.83;;;11.90;99.90;;;;;;5053087;28;20807;-57
2024/02/11 05:10:16;;;;;;;9.83;8.73;;;11.90;99.90;;;;;;5053186;28;20504;-57
2024/02/11 05:12:44;;;;;;;9.00;7.83;;;11.90;99.90;;;;;;5053225;28;20827;-56
2024/02/11 05:15:14;;;;;;;11.03;8.80;;;11.90;99.90;;;;;;5052745;28;20936;-57
2024/02/11 05:17:41;;;;;;;10.73;8.07;;;11.90;99.90;;;;;;5053112;28;20959;-56
2024/02/11 05:20:13;;;;;;;3.20;2.90;;;11.90;99.90;;;;;;5052961;28;20508;-56
2024/02/11 05:22:44;;;;;;;1.40;1.30;;;11.70;99.90;;;;;;5053168;28;20478;-56
2024/02/11 05:25:19;;;;;;;1.47;1.30;;;11.40;99.90;;;;;;5053114;28;20433;-56
2024/02/11 05:27:53;;;;;;;1.83;1.60;;;11.10;99.90;;;;;;5052767;28;20492;-56
2024/02/11 05:30:20;;;;;;;4.63;1.93;;;10.80;99.90;;;;;;5052889;28;20473;-56
2024/02/11 05:32:48;;;;;;;7.03;1.80;;;10.50;99.90;;;;;;5052763;28;20452;-56
2024/02/11 05:35:17;;;;;;;7.90;2.03;;;10.30;99.90;;;;;;5052525;28;20952;-56
2024/02/11 05:37:44;;;;;;;7.73;1.67;;;10.10;99.90;;;;;;5055830;28;20994;-56
2024/02/11 05:40:12;;;;;;;6.00;1.73;;;9.90;99.90;;;;;;5056763;28;20477;-56
2024/02/11 05:42:40;;;;;;;9.13;2.60;;;9.70;99.90;;;;;;5056662;28;20453;-56
2024/02/11 05:45:09;;;;;;;9.63;2.27;;;9.60;99.90;;;;;;5056548;28;20449;-55
2024/02/11 05:47:36;;;;;;;11.27;2.23;;;9.50;99.90;;;;;;5056509;28;20833;-55
2024/02/11 05:50:05;;;;;;;9.73;3.00;;;9.40;99.90;;;;;;5056438;28;20448;-56
2024/02/11 05:52:32;;;;;;;5.17;2.60;;;9.40;99.90;;;;;;5056105;28;20613;-56
2024/02/11 05:54:59;;;;;;;7.00;2.63;;;9.30;99.90;;;;;;5056138;28;20893;-56
2024/02/11 05:57:26;;;;;;;6.80;2.80;;;9.30;99.90;;;;;;5056346;28;20556;-56
2024/02/11 05:59:53;;;;;;;10.60;2.60;;;9.30;99.90;;;;;;5056317;28;20564;-56
2024/02/11 06:02:21;;;;;;;9.83;3.33;;;9.30;99.90;;;;;;5056299;28;20455;-56
2024/02/11 06:04:49;;;;;;;7.60;2.60;;;9.30;99.90;;;;;;5056290;28;20445;-55
2024/02/11 06:07:16;;;;;;;11.17;3.00;;;9.30;99.90;;;;;;5055813;28;20991;-55
2024/02/11 06:09:43;;;;;;;7.83;3.40;;;9.30;99.90;;;;;;5056240;28;20533;-55
2024/02/11 06:12:11;;;;;;;11.53;2.73;;;9.40;99.90;;;;;;5056049;28;20450;-55
2024/02/11 06:14:38;;;;;;;9.00;2.70;;;9.30;99.90;;;;;;5056093;28;20453;-56
2024/02/11 06:17:06;;;;;;;8.93;3.23;;;9.40;99.90;;;;;;5055705;28;20469;-55
2024/02/11 06:19:35;;;;;;;12.47;3.17;;;9.40;99.90;;;;;;5055742;28;20934;-55
2024/02/11 06:22:02;;;;;;;8.10;3.10;;;9.50;99.90;;;;;;5056159;28;20540;-55
2024/02/11 06:24:29;;;;;;;9.50;2.57;;;9.50;99.90;;;;;;5056599;28;20471;-55
2024/02/11 06:26:58;;;;;;;11.37;3.70;;;9.50;99.90;;;;;;5056695;28;20469;-55
2024/02/11 06:29:27;;;;;;;9.20;3.03;;;9.50;99.90;;;;;;5056267;28;20445;-55
2024/02/11 06:31:54;;;;;;;12.93;4.40;;;9.50;99.90;;;;;;5056180;28;20461;-55
2024/02/11 06:34:22;;;;;;;9.00;3.80;;;9.60;99.90;;;;;;5055966;28;20442;-55
2024/02/11 06:36:52;;;;;;;8.30;3.93;;;9.60;99.90;;;;;;5055827;28;20470;-55
2024/02/11 06:39:21;;;;;;;12.60;5.40;;;9.60;99.90;;;;;;5055637;28;20985;-55
2024/02/11 06:41:48;;;;;;;12.30;4.03;;;9.70;99.90;;;;;;5055857;28;20446;-55
2024/02/11 06:44:16;;;;;;;9.00;4.30;;;9.70;99.90;;;;;;5055569;28;20499;-55
2024/02/11 06:46:43;;;;;;;13.00;4.30;;;9.70;99.90;;;;;;5054881;28;20975;-55
2024/02/11 06:49:09;;;;;;;7.57;3.60;;;9.60;99.90;;;;;;5055536;28;20808;-55
2024/02/11 06:51:36;;;;;;;11.13;4.37;;;9.70;99.90;;;;;;5055516;28;20472;-55
2024/02/11 06:54:06;;;;;;;8.00;4.70;;;9.70;99.90;;;;;;5054992;28;20462;-55
2024/02/11 06:56:34;;;;;;;10.97;4.20;;;9.70;99.90;;;;;;5055433;28;20454;-56
2024/02/11 06:59:03;;;;;;;15.47;6.23;;;9.70;99.90;;;;;;5055306;28;20481;-56
2024/02/11 07:01:30;;;;;;;12.23;4.00;;;9.70;99.90;;;;;;5054953;28;20473;-57
2024/02/11 07:03:57;;;;;;;10.60;4.23;;;9.70;99.90;;;;;;5055235;28;20453;-57
2024/02/11 07:06:24;;;;;;;7.97;3.83;;;9.70;99.90;;;;;;5055071;28;20452;-56
2024/02/11 07:08:51;;;;;;;11.27;3.17;;;9.70;99.90;;;;;;5055132;28;20444;-56
2024/02/11 07:11:19;;;;;;;7.20;5.30;;;9.70;99.90;;;;;;5055574;28;20441;-56
2024/02/11 07:13:48;;;;;;;3.77;2.80;;;9.70;99.90;;;;;;5054708;28;20445;-56
2024/02/11 07:16:17;;;;;;;6.50;3.30;;;9.70;99.90;;;;;;5055171;28;20454;-56
2024/02/11 07:18:46;;;;;;;10.93;3.67;;;9.70;99.90;;;;;;5054642;28;20832;-56
2024/02/11 07:21:13;;;;;;;9.40;3.50;;;9.70;99.90;;;;;;5054896;28;20507;-55
2024/02/11 07:23:41;;;;;;;7.77;3.63;;;9.70;99.90;;;;;;5054839;28;20924;-56
2024/02/11 07:26:10;;;;;;;10.17;3.80;;;9.70;99.90;;;;;;5055608;28;20450;-56
2024/02/11 07:28:39;;;;;;;5.60;3.23;;;9.70;99.90;;;;;;5054546;28;20497;-56
2024/02/11 07:31:06;;;;;;;5.30;2.97;;;9.80;99.90;;;;;;5054757;28;20475;-56
2024/02/11 07:33:33;;;;;;;7.10;3.87;;;9.80;99.90;;;;;;5054796;28;20474;-56
2024/02/11 07:35:59;;;;;;;8.57;4.10;;;9.80;99.90;;;;;;5055196;28;20548;-56
2024/02/11 07:38:26;;;;;;;9.67;4.20;;;9.80;99.90;;;;;;5054398;28;20469;-56
2024/02/11 07:40:53;;;;;;;7.60;3.90;;;9.90;99.90;;;;;;5054661;28;20481;-56
2024/02/11 07:43:22;;;;;;;7.43;4.20;;;9.90;99.90;;;;;;5055080;28;20445;-56
2024/02/11 07:45:52;;;;;;;9.60;5.53;;;9.90;99.90;;;;;;5054509;28;20453;-55
2024/02/11 07:48:20;;;;;;;7.37;4.30;;;10.00;99.90;;;;;;5054587;28;20466;-56
2024/02/11 07:50:48;;;;;;;6.60;4.30;;;10.00;99.90;;;;;;5054399;28;20437;-56
2024/02/11 07:53:15;;;;;;;9.00;4.40;;;10.00;99.90;;;;;;5054009;28;20862;-56
2024/02/11 07:55:42;;;;;;;7.93;4.77;;;10.10;99.90;;;;;;5054424;28;20421;-57
2024/02/11 07:58:08;;;;;;;9.60;5.00;;;10.10;99.90;;;;;;5053921;28;20472;-56
2024/02/11 08:00:35;;;;;;;13.17;5.40;;;10.10;99.90;;;;;;5053801;28;20483;-56
2024/02/11 08:03:04;;;;;;;7.87;4.23;;;10.20;99.90;;;;;;5054536;28;20444;-56
2024/02/11 08:05:32;;;;;;;6.17;4.60;;;10.20;99.90;;;;;;5054098;28;20456;-56
2024/02/11 08:07:59;;;;;;;8.10;5.57;;;10.20;99.90;;;;;;5054057;28;20477;-56
2024/02/11 08:10:26;;;;;;;12.30;5.43;;;10.20;99.90;;;;;;5054336;28;20979;-56
2024/02/11 08:12:53;;;;;;;7.93;4.73;;;10.20;99.90;;;;;;5054153;28;20449;-56
2024/02/11 08:15:20;;;;;;;6.70;4.60;;;10.20;99.90;;;;;;5054621;28;20548;-56
2024/02/11 08:17:47;;;;;;;13.07;5.93;;;10.20;99.90;;;;;;5056133;28;20468;-55
2024/02/11 08:20:17;;;;;;;9.13;5.20;;;10.20;99.90;;;;;;5056474;28;20473;-55
2024/02/11 08:22:45;;;;;;;10.93;5.17;;;10.30;99.90;;;;;;5053765;28;20438;-56
2024/02/11 08:25:13;;;;;;;8.47;5.40;;;10.30;99.90;;;;;;5053013;28;20476;-56
2024/02/11 08:27:41;;;;;;;10.37;6.03;;;10.40;99.90;;;;;;5053696;28;20473;-56
2024/02/11 08:30:10;;;;;;;14.87;6.00;;;10.40;99.90;;;;;;5054051;28;20437;-56
2024/02/11 08:32:38;;;;;;;10.93;5.03;;;10.40;99.90;;;;;;5053932;28;20525;-56
2024/02/11 08:35:06;;;;;;;10.80;5.87;;;10.50;99.90;;;;;;5053774;28;20449;-56
2024/02/11 08:37:34;;;;;;;9.43;5.77;;;10.60;99.90;;;;;;5053566;28;20468;-56
2024/02/11 08:40:01;;;;;;;9.63;5.97;;;10.60;99.90;;;;;;5053238;28;21093;-56
2024/02/11 08:42:29;;;;;;;10.97;5.33;;;10.70;99.90;;;;;;5054035;28;20450;-57
2024/02/11 08:44:56;;;;;;;7.40;5.83;;;10.70;99.90;;;;;;5053870;28;20461;-56
2024/02/11 08:47:24;;;;;;;6.33;4.50;;;10.80;99.90;;;;;;5053610;28;20457;-56
2024/02/11 08:49:51;;;;;;;12.00;5.30;;;10.80;99.90;;;;;;5053898;28;20448;-56
2024/02/11 08:52:18;;;;;;;8.20;5.13;;;10.80;99.90;;;;;;5053688;28;20449;-56
2024/02/11 08:54:47;;;;;;;6.13;4.53;;;10.90;99.90;;;;;;5053160;28;20445;-55
2024/02/11 08:57:15;;;;;;;9.60;5.67;;;10.90;99.90;;;;;;5053370;28;20465;-55
2024/02/11 08:59:42;;;;;;;6.70;5.07;;;10.90;99.90;;;;;;5053482;28;20564;-55
2024/02/11 09:02:10;;;;;;;9.90;5.50;;;11.00;99.90;;;;;;5053611;28;20437;-55
2024/02/11 09:04:37;;;;;;;13.77;4.90;;;11.00;99.90;;;;;;5053411;28;20445;-56
2024/02/11 09:07:05;;;;;;;7.80;5.50;;;11.00;99.90;;;;;;5053919;28;21031;-56
2024/02/11 09:09:34;;;;;;;7.77;5.70;;;11.10;99.90;;;;;;5053223;28;20445;-55
2024/02/11 09:12:02;;;;;;;8.03;5.67;;;11.10;99.90;;;;;;5057504;28;20436;-57
2024/02/11 09:14:30;;;;;;;9.83;4.73;;;11.10;99.90;;;;;;5057843;28;20446;-56
2024/02/11 09:16:58;;;;;;;12.57;5.43;;;11.10;99.90;;;;;;5057693;28;20469;-55
2024/02/11 09:19:25;;;;;;;10.77;5.23;;;11.20;99.90;;;;;;5057800;28;20526;-56
2024/02/11 09:21:52;;;;;;;13.53;5.50;;;11.20;99.90;;;;;;5058076;28;20456;-56
2024/02/11 09:24:19;;;;;;;10.53;4.50;;;11.30;99.90;;;;;;5058123;28;20438;-56
2024/02/11 09:26:47;;;;;;;10.13;4.67;;;11.30;99.90;;;;;;5058760;28;20473;-55
2024/02/11 09:29:15;;;;;;;7.27;5.50;;;11.30;99.90;;;;;;5057161;28;20454;-56
2024/02/11 09:31:42;;;;;;;14.93;4.33;;;11.30;99.90;;;;;;5058161;28;20528;-56
2024/02/11 09:34:08;;;;;;;9.63;5.20;;;11.40;99.90;;;;;;5057558;28;20451;-55
2024/02/11 09:36:35;;;;;;;8.57;5.88;;;11.40;99.90;;;;;;5057762;28;20439;-55
2024/02/11 09:39:03;;;;;;;9.30;5.10;;;11.50;99.90;;;;;;5058911;28;20199;-56
2024/02/11 09:41:30;;;;;;;6.70;4.63;;;11.50;99.90;;;;;;5058612;28;21006;-56
2024/02/11 09:44:02;;;;;;;9.00;4.67;;;11.60;99.90;;;;;;5059311;28;20492;-55
2024/02/11 09:46:34;;;;;;;8.37;4.80;;;11.60;99.90;;;;;;5059029;28;20468;-56
2024/02/11 09:49:05;;;;;;;8.17;4.60;;;11.70;99.90;;;;;;5059659;28;20487;-56
2024/02/11 09:51:33;;;;;;;11.30;4.27;;;11.70;99.90;;;;;;5059713;28;20425;-56
2024/02/11 09:54:01;;;;;;;7.13;4.10;;;11.80;99.90;;;;;;5059267;28;20467;-55
2024/02/11 09:56:28;;;;;;;12.10;4.43;;;11.90;99.90;;;;;;5058486;28;20442;-56
2024/02/11 09:58:57;;;;;;;14.23;4.30;;;11.90;99.90;;;;;;5059098;28;20456;-56
2024/02/11 10:01:24;;;;;;;7.53;4.07;;;11.90;99.90;;;;;;5059727;28;21030;-56
2024/02/11 10:03:54;;;;;;;11.10;4.47;;;11.90;99.90;;;;;;5060702;28;20525;-56
2024/02/11 10:06:27;;;;;;;9.63;4.47;;;11.90;99.90;;;;;;5059751;28;20450;-55
2024/02/11 10:08:54;;;;;;;10.80;4.97;;;12.00;99.90;;;;;;5059383;28;20434;-56
2024/02/11 10:11:23;;;;;;;5.07;3.73;;;12.00;99.90;;;;;;5056675;28;20445;-56
2024/02/11 10:13:51;;;;;;;9.77;4.10;;;12.10;99.90;;;;;;5057116;28;20458;-56
2024/02/11 10:16:17;;;;;;;9.57;4.30;;;12.10;99.90;;;;;;5056132;28;20472;-56
2024/02/11 10:18:44;;;;;;;6.57;3.60;;;12.10;99.90;;;;;;5056121;28;20583;-56
2024/02/11 10:21:12;;;;;;;9.70;4.40;;;12.10;99.90;;;;;;5056196;28;20481;-56
2024/02/11 10:23:40;;;;;;;10.63;4.43;;;12.10;99.90;;;;;;5055722;28;20442;-56
2024/02/11 10:26:09;;;;;;;6.37;3.53;;;12.20;99.90;;;;;;5055729;28;20827;-57
2024/02/11 10:28:37;;;;;;;7.17;3.90;;;12.20;99.90;;;;;;5055922;28;20465;-56
2024/02/11 10:31:04;;;;;;;7.50;3.40;;;12.20;99.90;;;;;;5055671;28;20499;-56
2024/02/11 10:33:32;;;;;;;8.63;3.57;;;12.20;99.90;;;;;;5055804;28;20442;-56
2024/02/11 10:36:02;;;;;;;9.43;3.60;;;12.30;99.90;;;;;;5055527;28;20446;-56
2024/02/11 10:38:32;;;;;;;6.77;3.13;;;12.20;99.90;;;;;;5055276;28;20498;-55
2024/02/11 10:41:00;;;;;;;7.53;3.90;;;12.20;99.90;;;;;;5055752;28;20485;-56
2024/02/11 10:43:28;;;;;;;7.80;3.80;;;12.30;99.90;;;;;;5055764;28;20445;-57
2024/02/11 10:45:55;;;;;;;12.63;4.23;;;12.40;99.90;;;;;;5055603;28;20446;-57
2024/02/11 10:48:22;;;;;;;8.20;3.33;;;12.50;99.90;;;;;;5055503;28;20540;-56
2024/02/11 10:51:00;;;;;;;6.60;3.50;;;12.60;99.90;;;;;;5055312;28;20444;-56
2024/02/11 10:53:33;;;;;;;12.87;4.23;;;12.70;99.90;;;;;;5055076;28;20457;-57
2024/02/11 10:56:01;;;;;;;6.53;3.90;;;12.80;99.90;;;;;;5055405;28;20425;-57
2024/02/11 10:58:29;;;;;;;6.77;3.03;;;12.90;99.90;;;;;;5055380;28;20465;-56
2024/02/11 11:01:01;;;;;;;7.97;3.70;;;12.90;99.90;;;;;;5055145;28;20492;-57
2024/02/11 11:03:30;;;;;;;7.70;3.83;;;13.00;99.90;;;;;;5055458;28;20821;-57
2024/02/11 11:05:59;;;;;;;6.67;2.90;;;13.10;99.90;;;;;;5054815;28;20449;-57
2024/02/11 11:08:27;;;;;;;9.80;5.03;;;13.20;99.90;;;;;;5055150;28;20568;-56
2024/02/11 11:10:59;;;;;;;9.13;4.23;;;13.20;99.90;;;;;;5054616;28;20489;-56
2024/02/11 11:13:27;;;;;;;9.33;4.20;;;13.30;99.90;;;;;;5054571;28;20517;-56
2024/02/11 11:15:54;;;;;;;12.23;5.90;;;13.30;99.90;;;;;;5054860;28;20549;-56
2024/02/11 11:18:22;;;;;;;5.50;3.77;;;13.30;99.90;;;;;;5054416;28;20478;-56
2024/02/11 11:20:52;;;;;;;6.77;2.90;;;13.30;99.90;;;;;;5054563;28;20481;-57
2024/02/11 11:23:20;;;;;;;7.67;3.00;;;13.40;99.90;;;;;;5054873;28;20470;-56
2024/02/11 11:25:55;;;;;;;5.90;3.50;;;13.40;99.90;;;;;;5054867;28;20449;-56
2024/02/11 11:28:29;;;;;;;6.63;2.50;;;13.60;99.90;;;;;;5054517;28;20872;-56
2024/02/11 11:30:57;;;;;;;5.47;2.60;;;14.00;99.90;;;;;;5054663;28;20429;-57
2024/02/11 11:33:27;;;;;;;3.80;1.30;;;14.60;99.90;;;;;;5053997;28;20503;-57
2024/02/11 11:35:58;;;;;;;5.63;1.70;;;15.30;99.70;;;;;;5054658;28;20444;-57
2024/02/11 11:38:26;;;;;;;7.97;1.87;;;15.70;97.00;;;;;;5054278;28;20474;-56
2024/02/11 11:40:54;;;;;;;6.30;1.93;;;16.00;95.30;;;;;;5054083;28;20484;-57
2024/02/11 11:43:27;;;;;;;7.20;1.67;;;16.20;95.00;;;;;;5054545;28;20445;-57
2024/02/11 11:45:56;;;;;;;6.53;1.90;;;16.50;93.10;;;;;;5054443;28;20429;-56
2024/02/11 11:48:23;;;;;;;7.00;3.00;;;16.80;93.50;;;;;;5054292;28;20470;-56
2024/02/11 11:50:57;;;;;;;4.33;1.50;;;17.10;93.00;;;;;;5054305;28;20532;-57
2024/02/11 11:53:24;;;;;;;3.63;1.70;;;17.40;91.50;;;;;;5053993;28;20463;-57
2024/02/11 11:55:52;;;;;;;5.07;1.90;;;17.40;89.60;;;;;;5054173;28;20442;-56
2024/02/11 11:58:20;;;;;;;6.43;1.80;;;17.10;88.30;;;;;;5054231;28;20549;-57
2024/02/11 12:00:59;;;;;;;3.50;1.60;;;16.50;89.90;;;;;;5054083;28;20481;-57
2024/02/11 12:03:26;;;;;;;4.97;1.97;;;16.20;91.60;;;;;;5054154;28;20448;-57
2024/02/11 12:05:53;;;;;;;3.27;1.50;;;15.90;91.80;;;;;;5053632;28;20449;-56
2024/02/11 12:08:21;;;;;;;4.53;1.67;;;15.70;92.20;;;;;;5053644;28;20472;-57
2024/02/11 12:10:58;;;;;;;5.17;1.17;;;15.60;92.20;;;;;;5053881;28;20438;-57
2024/02/11 12:13:26;;;;;;;7.37;2.13;;;15.50;92.20;;;;;;5053692;28;20499;-56
2024/02/11 12:15:55;;;;;;;6.17;2.30;;;15.40;92.40;;;;;;5053721;28;20449;-57
2024/02/11 12:18:25;;;;;;;3.83;1.80;;;15.30;92.50;;;;;;5053505;28;20511;-57
2024/02/11 12:20:53;;;;;;;3.10;1.70;;;15.30;93.00;;;;;;5053736;28;20492;-57
2024/02/11 12:23:20;;;;;;;4.00;1.27;;;15.20;93.30;;;;;;5053379;28;20449;-57
2024/02/11 12:25:53;;;;;;;6.90;1.90;;;15.00;93.00;;;;;;5053688;28;20446;-57
2024/02/11 12:28:26;;;;;;;4.17;1.40;;;14.80;93.40;;;;;;5053329;28;20465;-57
2024/02/11 12:31:05;;;;;;;2.13;1.30;;;14.50;94.40;;;;;;5053283;28;20935;-57
2024/02/11 12:33:37;;;;;;;2.63;1.50;;;14.50;94.70;;;;;;5053272;28;20928;-57
2024/02/11 12:36:07;;;;;;;3.90;1.67;;;14.40;95.10;;;;;;5053198;28;20438;-57
2024/02/11 12:38:36;;;;;;;7.20;1.90;;;14.30;95.40;;;;;;5053406;28;20469;-57
2024/02/11 12:41:03;;;;;;;3.40;1.40;;;14.20;94.90;;;;;;5053029;28;20995;-57
2024/02/11 12:43:32;;;;;;;3.70;1.53;;;14.10;95.70;;;;;;5053361;28;20525;-57
2024/02/11 12:45:59;;;;;;;3.20;1.50;;;14.00;96.40;;;;;;5052921;28;20456;-57